Time;durP1;ratioP1;P1;durP2;ratioP2;P2;SDS_P1;SDS_P2;PMS_P1;PMS_P2;Temp;Humidity;BMP_temperature;BMP_pressure;BME280_temperature;BME280_humidity;BME280_pressure;Samples;Min_cycle;Max_cycle;Signal;HPM_P1;HPM_P2
2021/12/29 00:02:07;;;;;;;1.40;1.20;;;21.40;50.20;;;;;;4963931;28;20190;-70
2021/12/29 00:04:32;;;;;;;1.52;1.15;;;21.50;50.30;;;;;;4971040;28;20194;-70
2021/12/29 00:06:59;;;;;;;1.00;0.90;;;21.50;50.30;;;;;;4971420;28;20210;-69
2021/12/29 00:09:25;;;;;;;1.42;0.90;;;21.50;50.30;;;;;;4955884;29;20301;-69
2021/12/29 00:11:52;;;;;;;1.88;1.00;;;21.50;51.00;;;;;;4971094;28;20186;-70
2021/12/29 00:14:18;;;;;;;1.95;1.33;;;21.50;50.30;;;;;;4970956;28;20195;-69
2021/12/29 00:16:44;;;;;;;2.03;1.27;;;21.40;50.30;;;;;;4971015;28;20387;-70
2021/12/29 00:19:09;;;;;;;2.00;1.10;;;21.40;50.30;;;;;;4954826;29;20205;-70
2021/12/29 00:21:37;;;;;;;1.40;1.10;;;21.50;50.30;;;;;;4954911;29;20205;-70
2021/12/29 00:24:05;;;;;;;2.67;1.35;;;21.40;50.30;;;;;;4956068;28;20309;-69
2021/12/29 00:26:32;;;;;;;1.20;1.00;;;21.40;50.30;;;;;;4954580;28;20214;-70
2021/12/29 00:29:00;;;;;;;1.98;1.20;;;21.40;50.30;;;;;;4964181;28;20190;-70
2021/12/29 00:31:29;;;;;;;2.13;1.15;;;21.50;50.30;;;;;;4955682;29;20273;-70
2021/12/29 00:34:14;;;;;;;1.52;1.02;;;21.40;50.30;;;;;;4955724;29;20260;-70
2021/12/29 00:36:58;;;;;;;1.42;1.05;;;21.40;50.20;;;;;;4955836;29;20651;-70
2021/12/29 00:39:43;;;;;;;1.85;1.05;;;21.40;50.30;;;;;;4968420;28;20196;-70
2021/12/29 00:42:27;;;;;;;1.40;0.90;;;21.40;50.20;;;;;;4956017;29;20205;-70
2021/12/29 00:45:12;;;;;;;1.27;1.15;;;21.40;50.30;;;;;;4955498;29;20249;-70
2021/12/29 00:47:38;;;;;;;1.90;1.27;;;21.40;50.30;;;;;;4970606;28;20194;-70
2021/12/29 00:50:15;;;;;;;1.92;1.00;;;21.40;50.20;;;;;;4955579;28;20202;-70
2021/12/29 00:52:45;;;;;;;1.50;1.15;;;21.50;50.30;;;;;;4970648;28;20186;-70
2021/12/29 00:55:17;;;;;;;1.13;1.00;;;21.40;50.20;;;;;;4954109;29;20210;-70
2021/12/29 00:57:43;;;;;;;1.25;0.88;;;21.40;50.20;;;;;;4970669;28;20191;-70
2021/12/29 01:00:17;;;;;;;1.63;1.00;;;21.40;50.30;;;;;;4970335;28;20194;-70
2021/12/29 01:02:44;;;;;;;1.85;1.10;;;21.40;50.30;;;;;;4942895;29;20186;-70
2021/12/29 01:05:14;;;;;;;1.90;1.20;;;21.40;50.20;;;;;;4953896;29;20230;-70
2021/12/29 01:07:42;;;;;;;1.30;1.00;;;21.40;50.20;;;;;;4938112;29;20190;-70
2021/12/29 01:10:08;;;;;;;1.50;1.10;;;21.40;50.20;;;;;;4955488;28;20214;-69
2021/12/29 01:12:34;;;;;;;2.05;1.08;;;21.40;50.20;;;;;;4954501;28;20254;-70
2021/12/29 01:15:02;;;;;;;1.38;1.08;;;21.40;50.20;;;;;;4937405;29;20257;-70
2021/12/29 01:17:27;;;;;;;1.95;1.00;;;21.40;50.20;;;;;;4937873;29;20182;-70
2021/12/29 01:19:56;;;;;;;1.73;1.02;;;21.40;50.20;;;;;;4953725;29;20560;-70
2021/12/29 01:22:23;;;;;;;1.10;0.90;;;21.40;50.20;;;;;;4954322;29;20205;-70
2021/12/29 01:24:49;;;;;;;1.45;1.05;;;21.50;50.30;;;;;;4953073;29;20276;-70
2021/12/29 01:27:16;;;;;;;1.48;0.90;;;21.40;50.30;;;;;;4954836;29;20198;-70
2021/12/29 01:29:43;;;;;;;1.52;1.00;;;21.50;50.30;;;;;;4937393;29;20206;-70
2021/12/29 01:32:09;;;;;;;1.20;0.98;;;21.50;50.30;;;;;;4945596;29;20194;-70
2021/12/29 01:34:35;;;;;;;1.40;0.95;;;21.50;50.30;;;;;;4953613;29;20186;-70
2021/12/29 01:37:02;;;;;;;1.55;1.02;;;21.40;50.20;;;;;;4953165;29;20305;-70
2021/12/29 01:39:28;;;;;;;1.42;0.90;;;21.40;50.20;;;;;;4954609;29;20226;-70
2021/12/29 01:41:57;;;;;;;1.02;0.73;;;21.50;50.30;;;;;;4937219;29;20662;-70
2021/12/29 01:44:26;;;;;;;2.10;1.02;;;21.40;50.20;;;;;;4953127;29;20209;-70
2021/12/29 01:46:56;;;;;;;1.60;0.98;;;21.50;50.30;;;;;;4953051;29;20214;-69
2021/12/29 01:49:22;;;;;;;1.15;0.95;;;21.40;50.30;;;;;;4953067;29;20226;-70
2021/12/29 01:51:51;;;;;;;0.93;0.80;;;21.40;50.20;;;;;;4937547;29;20187;-70
2021/12/29 01:54:26;;;;;;;1.27;0.85;;;21.40;50.20;;;;;;4954237;29;20269;-70
2021/12/29 01:56:57;;;;;;;1.25;0.90;;;21.50;50.30;;;;;;4937307;29;20218;-69
2021/12/29 01:59:25;;;;;;;1.38;0.90;;;21.50;50.30;;;;;;4936980;29;20269;-70
2021/12/29 02:01:52;;;;;;;1.25;0.85;;;21.50;50.30;;;;;;4952084;28;20226;-70
2021/12/29 02:04:19;;;;;;;1.27;0.80;;;21.40;50.20;;;;;;4952889;29;20214;-70
2021/12/29 02:06:45;;;;;;;1.15;0.80;;;21.40;50.20;;;;;;4969025;28;20206;-69
2021/12/29 02:09:12;;;;;;;1.05;0.80;;;21.40;50.30;;;;;;4952801;29;20218;-70
2021/12/29 02:11:42;;;;;;;2.05;0.70;;;21.50;50.30;;;;;;4969290;28;20178;-70
2021/12/29 02:14:09;;;;;;;1.30;0.82;;;21.50;50.30;;;;;;4953018;29;20225;-69
2021/12/29 02:16:36;;;;;;;1.30;0.75;;;21.40;50.20;;;;;;4952477;28;20210;-69
2021/12/29 02:19:08;;;;;;;0.75;0.75;;;21.50;50.30;;;;;;4954077;28;20205;-69
2021/12/29 02:21:34;;;;;;;1.25;0.80;;;21.50;50.30;;;;;;4968540;28;20229;-69
2021/12/29 02:24:18;;;;;;;1.02;0.70;;;21.40;50.20;;;;;;4953633;29;20198;-70
2021/12/29 02:26:45;;;;;;;1.73;0.70;;;21.40;50.20;;;;;;4952757;29;20206;-70
2021/12/29 02:29:16;;;;;;;1.77;0.93;;;21.40;50.20;;;;;;4952910;29;20238;-70
2021/12/29 02:31:44;;;;;;;0.85;0.77;;;21.40;50.20;;;;;;4960656;28;20183;-70
2021/12/29 02:34:14;;;;;;;0.93;0.88;;;21.40;50.20;;;;;;4936491;29;20284;-70
2021/12/29 02:36:45;;;;;;;1.20;0.80;;;21.40;50.20;;;;;;4936726;29;20202;-70
2021/12/29 02:39:22;;;;;;;1.77;1.10;;;21.40;50.20;;;;;;4936571;29;20194;-70
2021/12/29 02:41:53;;;;;;;1.55;0.85;;;21.50;50.30;;;;;;4952802;29;20213;-70
2021/12/29 02:44:25;;;;;;;2.22;1.00;;;21.50;50.30;;;;;;4952282;29;20212;-70
2021/12/29 02:46:53;;;;;;;0.60;0.60;;;21.40;50.20;;;;;;4952414;29;20207;-70
2021/12/29 02:49:20;;;;;;;1.25;0.98;;;21.40;50.20;;;;;;4952030;29;20365;-70
2021/12/29 02:51:47;;;;;;;1.13;0.80;;;21.40;50.20;;;;;;4960578;28;20309;-70
2021/12/29 02:54:16;;;;;;;1.27;0.80;;;21.40;50.20;;;;;;4952385;29;20582;-70
2021/12/29 02:56:44;;;;;;;1.13;0.80;;;21.40;50.30;;;;;;4952325;28;20602;-70
2021/12/29 02:59:10;;;;;;;1.55;0.80;;;21.40;50.20;;;;;;4968197;28;20198;-70
2021/12/29 03:01:36;;;;;;;1.13;0.85;;;21.40;50.20;;;;;;4944196;29;20221;-70
2021/12/29 03:04:06;;;;;;;0.63;0.60;;;21.40;50.20;;;;;;4954566;28;20194;-70
2021/12/29 03:06:33;;;;;;;1.17;0.70;;;21.40;50.20;;;;;;4952048;29;20214;-70
2021/12/29 03:08:59;;;;;;;1.50;1.00;;;21.40;50.20;;;;;;4936162;29;20573;-70
2021/12/29 03:11:24;;;;;;;0.82;0.70;;;21.40;50.20;;;;;;4936415;29;20186;-70
2021/12/29 03:13:51;;;;;;;1.52;1.00;;;21.40;50.20;;;;;;4952240;29;20186;-70
2021/12/29 03:16:17;;;;;;;0.73;0.70;;;21.50;50.20;;;;;;4922451;29;20200;-70
2021/12/29 03:18:43;;;;;;;0.70;0.60;;;21.50;50.30;;;;;;4917604;29;20222;-70
2021/12/29 03:21:10;;;;;;;1.38;1.00;;;21.50;50.30;;;;;;4926909;28;20195;-70
2021/12/29 03:23:37;;;;;;;1.08;0.88;;;21.50;50.30;;;;;;4952117;28;20238;-70
2021/12/29 03:26:03;;;;;;;1.02;0.82;;;21.50;50.30;;;;;;4951558;29;20276;-70
2021/12/29 03:28:30;;;;;;;0.77;0.70;;;21.40;50.20;;;;;;4936261;29;20534;-70
2021/12/29 03:30:56;;;;;;;0.88;0.77;;;21.40;50.20;;;;;;4953049;29;20241;-70
2021/12/29 03:33:26;;;;;;;1.10;0.80;;;21.50;50.30;;;;;;4960529;28;20178;-70
2021/12/29 03:36:03;;;;;;;0.88;0.63;;;21.40;50.20;;;;;;4963577;28;20206;-72
2021/12/29 03:38:35;;;;;;;0.50;0.50;;;21.50;50.30;;;;;;4971631;28;20225;-72
2021/12/29 03:41:04;;;;;;;0.98;0.88;;;21.40;50.20;;;;;;4955913;29;20194;-72
2021/12/29 03:43:32;;;;;;;0.60;0.60;;;21.40;50.20;;;;;;4955531;29;20225;-72
2021/12/29 03:46:00;;;;;;;0.93;0.70;;;21.40;50.20;;;;;;4971601;28;20202;-72
2021/12/29 03:48:28;;;;;;;1.08;0.80;;;21.50;50.30;;;;;;4939581;29;20186;-72
2021/12/29 03:50:56;;;;;;;0.50;0.50;;;21.40;50.20;;;;;;4971584;28;20266;-72
2021/12/29 03:53:23;;;;;;;0.60;0.52;;;21.50;50.20;;;;;;4971564;28;20182;-72
2021/12/29 03:55:50;;;;;;;1.20;0.60;;;21.40;50.20;;;;;;4971255;28;20210;-72
2021/12/29 03:58:22;;;;;;;1.55;0.85;;;21.40;50.20;;;;;;4971533;28;20190;-72
2021/12/29 04:00:52;;;;;;;0.60;0.60;;;21.40;50.20;;;;;;4955325;29;20191;-71
2021/12/29 04:03:18;;;;;;;0.88;0.55;;;21.40;50.20;;;;;;4971267;28;20193;-72
2021/12/29 04:05:45;;;;;;;1.23;0.75;;;21.50;50.30;;;;;;4963460;28;20261;-72
2021/12/29 04:08:10;;;;;;;1.27;0.90;;;21.40;50.20;;;;;;4956306;29;20186;-73
2021/12/29 04:10:37;;;;;;;1.45;0.80;;;21.40;50.20;;;;;;5001707;22;20235;-70
2021/12/29 04:13:03;;;;;;;1.10;0.80;;;21.40;50.20;;;;;;4974548;28;20186;-70
2021/12/29 04:15:30;;;;;;;0.98;0.63;;;21.40;50.20;;;;;;4975843;28;20193;-70
2021/12/29 04:17:58;;;;;;;0.60;0.60;;;21.50;50.30;;;;;;4958636;28;20178;-70
2021/12/29 04:23:18;;;;;;;0.90;0.70;;;21.50;50.30;;;;;;4974650;28;20225;-70
2021/12/29 04:25:49;;;;;;;1.05;0.80;;;21.50;50.30;;;;;;4990837;28;20198;-70
2021/12/29 04:28:20;;;;;;;0.63;0.63;;;21.40;50.20;;;;;;4974631;28;20182;-70
2021/12/29 04:30:48;;;;;;;0.70;0.60;;;21.40;50.30;;;;;;4990814;28;20275;-70
2021/12/29 04:33:15;;;;;;;0.65;0.65;;;21.40;50.20;;;;;;4974545;28;20562;-70
2021/12/29 04:35:41;;;;;;;1.00;0.57;;;21.40;50.20;;;;;;4977262;28;20260;-70
2021/12/29 04:38:07;;;;;;;0.82;0.60;;;21.50;50.20;;;;;;4974600;28;20201;-70
2021/12/29 04:40:34;;;;;;;0.93;0.60;;;21.40;50.20;;;;;;4974476;28;20205;-70
2021/12/29 04:43:00;;;;;;;1.15;0.80;;;21.40;50.20;;;;;;4958257;28;20185;-70
2021/12/29 04:45:27;;;;;;;1.00;0.63;;;21.40;50.20;;;;;;4974017;28;20201;-70
2021/12/29 04:47:53;;;;;;;0.85;0.70;;;21.50;50.30;;;;;;4958117;28;20281;-70
2021/12/29 04:50:27;;;;;;;1.15;0.60;;;21.40;50.20;;;;;;4973964;28;20308;-70
2021/12/29 04:53:00;;;;;;;0.90;0.80;;;21.40;50.20;;;;;;4958193;28;20189;-70
2021/12/29 04:55:28;;;;;;;1.35;0.77;;;21.50;50.20;;;;;;4973770;28;20272;-70
2021/12/29 04:57:56;;;;;;;0.80;0.50;;;21.50;50.30;;;;;;4981770;28;20632;-70
2021/12/29 05:00:25;;;;;;;1.45;0.68;;;21.40;50.20;;;;;;4968338;28;20206;-69
2021/12/29 05:02:53;;;;;;;0.75;0.70;;;21.40;50.20;;;;;;4968218;28;20181;-69
2021/12/29 05:05:41;;;;;;;0.50;0.40;;;21.40;50.20;;;;;;4985244;28;20191;-70
2021/12/29 05:08:27;;;;;;;0.60;0.55;;;21.40;50.20;;;;;;4994053;28;20188;-70
2021/12/29 05:10:59;;;;;;;0.50;0.50;;;21.40;50.20;;;;;;4994040;28;20282;-68
2021/12/29 05:13:28;;;;;;;0.70;0.70;;;21.40;50.20;;;;;;4995032;28;20173;-69
2021/12/29 05:15:55;;;;;;;0.80;0.70;;;21.40;50.20;;;;;;4993516;28;20280;-71
2021/12/29 05:18:25;;;;;;;1.48;0.65;;;21.40;50.20;;;;;;4999106;28;20216;-69
2021/12/29 05:20:51;;;;;;;0.57;0.52;;;21.40;50.20;;;;;;4972847;28;20213;-67
2021/12/29 05:23:18;;;;;;;1.02;0.80;;;21.50;50.20;;;;;;4975301;28;20186;-70
2021/12/29 05:25:44;;;;;;;0.98;0.70;;;21.40;50.20;;;;;;4941861;28;20189;-69
2021/12/29 05:28:10;;;;;;;0.55;0.55;;;21.40;50.20;;;;;;4974128;28;20190;-70
2021/12/29 05:30:36;;;;;;;0.57;0.57;;;21.40;50.20;;;;;;4974933;28;20245;-69
2021/12/29 05:33:04;;;;;;;0.95;0.82;;;21.40;50.20;;;;;;4975353;28;20182;-70
2021/12/29 05:35:30;;;;;;;0.60;0.60;;;21.40;50.20;;;;;;4993259;28;20224;-70
2021/12/29 05:37:57;;;;;;;1.38;0.63;;;21.40;50.20;;;;;;4993404;28;20567;-70
2021/12/29 05:40:24;;;;;;;0.50;0.50;;;21.40;50.10;;;;;;4992578;28;20282;-70
2021/12/29 05:42:50;;;;;;;0.65;0.55;;;21.40;50.20;;;;;;4993337;28;20224;-70
2021/12/29 05:45:16;;;;;;;0.45;0.45;;;21.40;50.20;;;;;;4992819;28;20212;-70
2021/12/29 05:47:43;;;;;;;0.80;0.60;;;21.40;50.20;;;;;;4976836;28;20197;-69
2021/12/29 05:50:14;;;;;;;0.85;0.73;;;21.40;50.20;;;;;;5009051;28;20209;-70
2021/12/29 05:52:40;;;;;;;0.43;0.43;;;21.40;50.20;;;;;;4992679;28;20655;-70
2021/12/29 05:55:07;;;;;;;0.60;0.60;;;21.40;50.20;;;;;;4992601;28;20212;-70
2021/12/29 05:57:33;;;;;;;0.68;0.52;;;21.40;50.20;;;;;;4992061;28;20176;-68
2021/12/29 05:59:59;;;;;;;0.75;0.50;;;21.40;50.20;;;;;;4992522;28;20205;-71
2021/12/29 06:02:25;;;;;;;0.93;0.70;;;21.40;50.20;;;;;;4993400;28;20188;-70
2021/12/29 06:04:51;;;;;;;0.90;0.63;;;21.40;50.20;;;;;;4993382;28;20181;-70
2021/12/29 06:07:17;;;;;;;0.70;0.60;;;21.40;50.20;;;;;;4992631;28;20260;-70
2021/12/29 06:09:42;;;;;;;0.45;0.45;;;21.40;50.20;;;;;;4992138;28;20217;-69
2021/12/29 06:12:09;;;;;;;0.68;0.60;;;21.40;50.20;;;;;;4976564;28;20199;-69
2021/12/29 06:14:35;;;;;;;0.60;0.50;;;21.40;50.20;;;;;;4991956;28;20680;-70
2021/12/29 06:17:02;;;;;;;0.77;0.50;;;21.40;50.20;;;;;;4975896;28;20648;-70
2021/12/29 06:19:27;;;;;;;0.60;0.60;;;21.40;50.20;;;;;;4976160;28;20304;-69
2021/12/29 06:21:53;;;;;;;0.60;0.60;;;21.40;50.20;;;;;;4976030;28;20275;-70
2021/12/29 06:24:19;;;;;;;0.60;0.50;;;21.40;50.20;;;;;;4976013;28;20311;-70
2021/12/29 06:26:44;;;;;;;0.95;0.50;;;21.40;50.20;;;;;;4976060;28;20188;-70
2021/12/29 06:29:11;;;;;;;0.50;0.40;;;21.40;50.20;;;;;;4975772;28;20212;-69
2021/12/29 06:31:37;;;;;;;0.63;0.60;;;21.40;50.20;;;;;;4991676;28;20247;-68
2021/12/29 06:34:03;;;;;;;0.77;0.60;;;21.40;50.20;;;;;;4983443;28;20176;-69
2021/12/29 06:36:29;;;;;;;0.65;0.65;;;21.40;50.20;;;;;;4991721;28;20185;-69
2021/12/29 06:38:55;;;;;;;0.57;0.55;;;21.40;50.20;;;;;;4959088;28;20309;-69
2021/12/29 06:41:21;;;;;;;0.50;0.50;;;21.40;50.20;;;;;;4956509;28;20308;-70
2021/12/29 06:43:47;;;;;;;1.05;0.77;;;21.40;50.20;;;;;;4956207;28;20190;-70
2021/12/29 06:46:12;;;;;;;0.50;0.50;;;21.40;50.20;;;;;;4955747;28;20229;-69
2021/12/29 06:48:38;;;;;;;0.47;0.40;;;21.40;50.20;;;;;;4955926;28;20189;-70
2021/12/29 06:51:04;;;;;;;0.65;0.55;;;21.40;50.20;;;;;;4956304;28;20252;-70
2021/12/29 06:53:31;;;;;;;0.50;0.40;;;21.40;50.20;;;;;;4972341;28;20220;-70
2021/12/29 06:55:59;;;;;;;0.60;0.50;;;21.40;50.20;;;;;;4972003;28;20186;-69
2021/12/29 06:58:25;;;;;;;0.70;0.70;;;21.40;50.20;;;;;;4972179;28;20190;-70
2021/12/29 07:00:51;;;;;;;0.63;0.60;;;21.40;50.20;;;;;;4985251;28;20212;-70
2021/12/29 07:03:17;;;;;;;0.40;0.40;;;21.40;50.20;;;;;;4974805;28;20185;-70
2021/12/29 07:05:43;;;;;;;0.63;0.60;;;21.40;50.20;;;;;;4992463;28;20189;-70
2021/12/29 07:08:09;;;;;;;1.10;0.68;;;21.40;50.20;;;;;;4969913;28;20181;-70
2021/12/29 07:10:34;;;;;;;0.40;0.40;;;21.40;50.20;;;;;;4995379;28;20291;-70
2021/12/29 07:13:00;;;;;;;0.85;0.45;;;21.40;50.20;;;;;;4995276;28;20300;-70
2021/12/29 07:15:27;;;;;;;0.50;0.50;;;21.40;50.20;;;;;;4978298;28;20240;-70
2021/12/29 07:17:53;;;;;;;0.60;0.60;;;21.40;50.20;;;;;;4996147;28;20173;-69
2021/12/29 07:20:18;;;;;;;0.50;0.50;;;21.40;50.20;;;;;;4995238;28;20288;-69
2021/12/29 07:22:44;;;;;;;0.40;0.40;;;21.40;50.20;;;;;;4979346;28;20301;-70
2021/12/29 07:25:10;;;;;;;0.50;0.50;;;21.40;50.20;;;;;;4986398;28;20189;-69
2021/12/29 07:27:36;;;;;;;0.50;0.50;;;21.40;50.20;;;;;;5005431;28;20307;-69
2021/12/29 07:30:02;;;;;;;0.65;0.50;;;21.40;50.20;;;;;;4978699;28;20209;-69
2021/12/29 07:32:28;;;;;;;0.55;0.40;;;21.40;50.20;;;;;;4982984;28;20193;-70
2021/12/29 07:34:54;;;;;;;0.47;0.47;;;21.40;50.20;;;;;;4983619;28;20192;-69
2021/12/29 07:37:19;;;;;;;0.50;0.50;;;21.40;50.20;;;;;;4975581;28;20186;-69
2021/12/29 07:39:45;;;;;;;0.60;0.60;;;21.40;50.20;;;;;;4975407;28;20220;-69
2021/12/29 07:42:11;;;;;;;0.32;0.30;;;21.40;50.20;;;;;;4959509;28;20181;-69
2021/12/29 07:44:45;;;;;;;0.52;0.50;;;21.40;50.20;;;;;;4959721;28;20260;-69
2021/12/29 07:47:12;;;;;;;0.60;0.60;;;21.40;50.20;;;;;;4975206;28;20197;-69
2021/12/29 07:49:38;;;;;;;0.77;0.45;;;21.40;50.20;;;;;;4975152;28;20767;-70
2021/12/29 07:52:05;;;;;;;0.50;0.50;;;21.40;50.20;;;;;;4959659;28;20201;-70
2021/12/29 07:54:30;;;;;;;0.70;0.50;;;21.40;50.20;;;;;;4975498;28;20561;-69
2021/12/29 07:56:56;;;;;;;0.40;0.40;;;21.40;50.20;;;;;;4959638;28;20628;-69
2021/12/29 07:59:22;;;;;;;1.42;0.70;;;21.40;50.20;;;;;;4959118;28;20216;-69
2021/12/29 08:01:48;;;;;;;0.60;0.40;;;21.40;50.20;;;;;;4963449;28;20196;-70
2021/12/29 08:04:16;;;;;;;0.70;0.40;;;21.40;50.30;;;;;;4995581;28;20659;-69
2021/12/29 08:06:42;;;;;;;0.70;0.60;;;21.40;50.80;;;;;;4994486;28;20251;-70
2021/12/29 08:09:09;;;;;;;0.57;0.50;;;21.40;50.20;;;;;;4978263;28;20217;-70
2021/12/29 08:11:37;;;;;;;0.60;0.55;;;21.40;50.20;;;;;;4978482;28;20188;-70
2021/12/29 08:14:03;;;;;;;0.60;0.50;;;21.40;50.20;;;;;;4994380;28;20227;-70
2021/12/29 08:16:29;;;;;;;0.68;0.50;;;21.40;50.20;;;;;;4995394;28;20212;-70
2021/12/29 08:18:55;;;;;;;0.40;0.40;;;21.40;50.20;;;;;;4995305;28;20235;-69
2021/12/29 08:21:21;;;;;;;0.30;0.30;;;21.40;50.20;;;;;;4993567;28;20220;-70
2021/12/29 08:23:47;;;;;;;0.55;0.38;;;21.40;50.20;;;;;;4994823;28;20186;-70
2021/12/29 08:26:13;;;;;;;0.40;0.40;;;21.40;50.20;;;;;;4994400;28;20192;-70
2021/12/29 08:28:38;;;;;;;0.60;0.40;;;21.40;50.20;;;;;;4994259;28;20216;-70
2021/12/29 08:31:04;;;;;;;0.70;0.60;;;21.40;50.20;;;;;;4995279;28;20204;-69
2021/12/29 08:33:33;;;;;;;0.65;0.40;;;21.40;50.20;;;;;;4987106;28;20280;-69
2021/12/29 08:35:59;;;;;;;0.60;0.47;;;21.40;50.20;;;;;;5007372;28;20711;-69
2021/12/29 08:38:24;;;;;;;0.57;0.55;;;21.40;50.20;;;;;;4995230;28;20209;-70
2021/12/29 08:40:51;;;;;;;0.45;0.40;;;21.40;50.20;;;;;;4995065;28;20215;-70
2021/12/29 08:43:17;;;;;;;0.50;0.50;;;21.40;50.20;;;;;;4994156;28;20189;-69
2021/12/29 08:45:46;;;;;;;0.30;0.30;;;21.40;50.20;;;;;;4993837;28;20224;-70
2021/12/29 08:48:13;;;;;;;0.50;0.50;;;21.40;50.20;;;;;;4993888;28;20185;-69
2021/12/29 08:50:39;;;;;;;0.55;0.43;;;21.40;50.20;;;;;;4977718;28;20239;-70
2021/12/29 08:53:08;;;;;;;0.98;0.63;;;21.40;50.20;;;;;;4993902;28;20185;-70
2021/12/29 08:55:37;;;;;;;0.75;0.60;;;21.40;50.20;;;;;;4995048;28;20192;-70
2021/12/29 08:58:06;;;;;;;0.40;0.40;;;21.40;50.20;;;;;;4977964;28;20224;-70
2021/12/29 09:00:34;;;;;;;0.60;0.50;;;21.40;50.20;;;;;;4995076;28;20687;-70
2021/12/29 09:03:00;;;;;;;0.32;0.32;;;21.40;50.20;;;;;;4972123;28;20185;-70
2021/12/29 09:05:26;;;;;;;0.40;0.40;;;21.40;50.20;;;;;;4977672;28;20189;-70
2021/12/29 09:07:51;;;;;;;0.93;0.45;;;21.40;50.20;;;;;;4974514;28;20264;-69
2021/12/29 09:10:20;;;;;;;0.30;0.30;;;21.40;50.10;;;;;;4958451;28;20700;-70
2021/12/29 09:12:51;;;;;;;0.50;0.50;;;21.40;50.20;;;;;;4963128;28;20182;-71
2021/12/29 09:15:21;;;;;;;0.40;0.40;;;21.40;50.10;;;;;;4976118;28;20288;-69
2021/12/29 09:17:47;;;;;;;0.40;0.40;;;21.40;50.20;;;;;;4993213;28;20185;-68
2021/12/29 09:20:24;;;;;;;0.50;0.50;;;21.40;50.10;;;;;;4977030;28;20216;-69
2021/12/29 09:22:51;;;;;;;0.50;0.50;;;21.40;50.20;;;;;;4977203;28;20180;-71
2021/12/29 09:25:20;;;;;;;0.50;0.50;;;21.40;50.10;;;;;;4977121;28;20279;-71
2021/12/29 09:27:49;;;;;;;0.60;0.40;;;21.40;50.20;;;;;;4977122;28;20184;-71
2021/12/29 09:30:22;;;;;;;0.77;0.50;;;21.40;50.10;;;;;;4993291;28;20618;-71
2021/12/29 09:32:48;;;;;;;0.50;0.50;;;21.40;50.10;;;;;;4994209;28;20278;-71
2021/12/29 09:35:16;;;;;;;0.50;0.50;;;21.40;50.10;;;;;;4984742;28;20232;-70
2021/12/29 09:37:43;;;;;;;0.60;0.57;;;21.50;50.20;;;;;;4994328;28;20185;-71
2021/12/29 09:40:12;;;;;;;0.60;0.60;;;21.40;50.10;;;;;;4976878;28;20292;-71
2021/12/29 09:42:38;;;;;;;0.60;0.60;;;21.50;50.20;;;;;;4993034;28;20600;-69
2021/12/29 09:45:06;;;;;;;0.40;0.40;;;21.40;50.10;;;;;;4992754;28;20196;-70
2021/12/29 09:47:34;;;;;;;0.95;0.52;;;21.40;50.10;;;;;;4992685;28;20211;-70
2021/12/29 09:50:03;;;;;;;0.50;0.50;;;21.40;50.10;;;;;;4992764;28;20213;-70
2021/12/29 09:52:33;;;;;;;1.27;0.52;;;21.50;50.20;;;;;;4976435;28;20195;-70
2021/12/29 09:55:06;;;;;;;0.50;0.40;;;21.40;50.10;;;;;;4993768;28;20272;-68
2021/12/29 09:57:34;;;;;;;0.40;0.40;;;21.40;50.10;;;;;;4976491;28;20275;-70
2021/12/29 10:00:05;;;;;;;0.60;0.60;;;21.50;50.20;;;;;;4992842;28;20208;-70
2021/12/29 10:02:35;;;;;;;0.63;0.50;;;21.40;50.10;;;;;;4994149;28;20199;-70
2021/12/29 10:05:02;;;;;;;0.45;0.30;;;21.40;50.70;;;;;;4976297;28;20212;-71
2021/12/29 10:07:28;;;;;;;0.68;0.68;;;21.50;50.20;;;;;;4993635;28;20240;-70
2021/12/29 10:12:22;;;;;;;0.50;0.50;;;21.40;50.20;;;;;;4991561;28;20259;-70
2021/12/29 10:14:56;;;;;;;0.73;0.50;;;21.50;50.20;;;;;;4975679;28;20593;-69
2021/12/29 10:17:27;;;;;;;0.73;0.60;;;21.40;50.20;;;;;;4992031;28;20177;-70
2021/12/29 10:20:17;;;;;;;0.70;0.60;;;21.50;50.20;;;;;;4961867;28;20677;-70
2021/12/29 10:22:56;;;;;;;0.50;0.50;;;21.50;50.20;;;;;;4947195;28;20204;-70
2021/12/29 10:25:24;;;;;;;0.77;0.65;;;21.40;50.10;;;;;;4942132;28;20240;-71
2021/12/29 10:27:53;;;;;;;0.50;0.50;;;21.50;50.30;;;;;;4972311;28;20653;-70
2021/12/29 10:30:29;;;;;;;0.40;0.40;;;21.50;50.20;;;;;;4988481;28;20708;-71
2021/12/29 10:32:58;;;;;;;0.40;0.40;;;21.40;50.20;;;;;;4972758;28;20225;-70
2021/12/29 10:35:33;;;;;;;0.50;0.50;;;21.40;50.20;;;;;;4988852;28;20264;-71
2021/12/29 10:38:24;;;;;;;0.70;0.70;;;21.40;50.20;;;;;;4972779;28;20213;-70
2021/12/29 10:40:50;;;;;;;0.60;0.60;;;21.50;50.20;;;;;;4988545;28;20347;-73
2021/12/29 10:43:17;;;;;;;0.45;0.40;;;21.50;50.20;;;;;;4988292;28;20272;-74
2021/12/29 10:45:49;;;;;;;0.50;0.40;;;21.40;50.20;;;;;;4972440;28;20182;-74
2021/12/29 10:48:30;;;;;;;0.70;0.70;;;21.50;50.20;;;;;;4972438;28;20197;-72
2021/12/29 10:51:03;;;;;;;0.57;0.50;;;21.40;50.10;;;;;;4987988;28;20311;-72
2021/12/29 10:53:32;;;;;;;1.52;0.50;;;21.50;50.20;;;;;;4980407;28;20178;-74
2021/12/29 10:55:58;;;;;;;0.90;0.57;;;21.40;50.10;;;;;;4950960;28;20220;-73
2021/12/29 10:58:28;;;;;;;0.82;0.50;;;21.50;50.20;;;;;;4960554;28;20186;-73
2021/12/29 11:01:09;;;;;;;0.38;0.38;;;21.50;50.20;;;;;;4937236;29;20237;-73
2021/12/29 11:03:45;;;;;;;0.95;0.55;;;21.40;50.10;;;;;;4968900;28;20218;-72
2021/12/29 11:06:15;;;;;;;1.25;0.50;;;21.50;50.10;;;;;;4936954;29;20174;-72
2021/12/29 11:08:52;;;;;;;0.65;0.65;;;21.40;50.10;;;;;;4937182;29;20674;-73
2021/12/29 11:11:24;;;;;;;1.77;0.70;;;21.40;50.00;;;;;;4944050;28;20213;-73
2021/12/29 11:13:53;;;;;;;3.05;1.00;;;21.50;50.20;;;;;;4940075;28;20213;-73
2021/12/29 11:16:19;;;;;;;0.82;0.60;;;21.50;50.40;;;;;;4972965;28;20186;-72
2021/12/29 11:18:51;;;;;;;0.90;0.65;;;21.50;50.40;;;;;;4956060;28;20182;-72
2021/12/29 11:21:30;;;;;;;1.40;0.70;;;21.50;50.60;;;;;;4955994;28;20300;-71
2021/12/29 11:24:09;;;;;;;0.75;0.50;;;21.50;50.60;;;;;;4939923;28;20221;-74
2021/12/29 11:26:35;;;;;;;1.95;0.60;;;21.50;50.60;;;;;;4963922;28;20182;-74
2021/12/29 11:29:12;;;;;;;0.60;0.60;;;21.50;50.50;;;;;;4972283;28;20192;-74
2021/12/29 11:31:50;;;;;;;2.95;1.00;;;21.40;50.40;;;;;;4972312;28;20260;-74
2021/12/29 11:34:27;;;;;;;0.95;0.63;;;21.50;50.50;;;;;;4972136;28;20197;-74
2021/12/29 11:37:19;;;;;;;1.60;0.80;;;21.50;50.50;;;;;;4972037;28;20543;-74
2021/12/29 11:39:46;;;;;;;1.05;0.57;;;21.40;50.40;;;;;;4953957;28;20297;-74
2021/12/29 11:42:13;;;;;;;0.80;0.80;;;21.50;50.40;;;;;;4972114;28;20622;-74
2021/12/29 11:44:40;;;;;;;2.03;0.70;;;21.50;50.50;;;;;;4971640;28;20217;-73
2021/12/29 11:47:08;;;;;;;0.80;0.60;;;21.40;50.40;;;;;;4971768;28;20186;-74
2021/12/29 11:49:34;;;;;;;0.90;0.63;;;21.40;50.40;;;;;;4971821;28;20308;-74
2021/12/29 11:52:14;;;;;;;1.55;0.80;;;21.40;50.30;;;;;;4971806;28;20190;-74
2021/12/29 11:54:54;;;;;;;1.52;0.80;;;21.40;50.30;;;;;;4971572;28;20193;-72
2021/12/29 11:57:30;;;;;;;1.80;0.80;;;21.40;50.40;;;;;;4983243;28;20181;-74
2021/12/29 12:00:17;;;;;;;1.60;0.80;;;21.40;50.40;;;;;;4975370;28;20209;-73
2021/12/29 12:02:50;;;;;;;2.53;1.00;;;21.40;50.40;;;;;;4975232;28;20185;-74
2021/12/29 12:05:25;;;;;;;1.25;1.05;;;21.40;50.40;;;;;;4991414;28;20174;-74
2021/12/29 12:07:51;;;;;;;1.77;1.00;;;21.50;50.40;;;;;;4976266;28;20232;-74
2021/12/29 12:10:36;;;;;;;0.88;0.73;;;21.40;50.30;;;;;;4974947;28;20321;-73
2021/12/29 12:13:25;;;;;;;0.85;0.82;;;21.50;50.40;;;;;;4975220;28;20178;-73
2021/12/29 12:16:07;;;;;;;1.77;0.70;;;21.40;50.30;;;;;;4966549;28;20178;-74
2021/12/29 12:18:49;;;;;;;3.60;1.58;;;21.40;50.40;;;;;;4991184;28;20273;-73
2021/12/29 12:21:32;;;;;;;1.38;1.20;;;21.40;50.30;;;;;;4990938;28;20205;-73
2021/12/29 12:24:14;;;;;;;1.30;1.00;;;21.40;50.40;;;;;;4991311;28;20173;-73
2021/12/29 12:26:54;;;;;;;1.50;0.80;;;21.40;50.30;;;;;;4981002;28;20237;-73
2021/12/29 12:29:21;;;;;;;2.40;1.10;;;21.40;50.40;;;;;;4959870;28;20185;-73
2021/12/29 12:32:04;;;;;;;2.38;1.27;;;21.50;50.50;;;;;;4976492;28;20194;-73
2021/12/29 12:34:30;;;;;;;2.15;1.27;;;21.40;50.40;;;;;;4976025;28;20638;-72
2021/12/29 12:36:56;;;;;;;3.00;1.30;;;21.50;50.50;;;;;;4959701;28;20181;-73
2021/12/29 12:39:23;;;;;;;1.48;1.10;;;21.40;50.30;;;;;;4974686;28;20221;-73
2021/12/29 12:41:53;;;;;;;0.93;0.90;;;21.40;50.40;;;;;;4974580;28;20228;-73
2021/12/29 12:44:40;;;;;;;3.00;1.33;;;21.40;50.30;;;;;;4990762;28;20181;-70
2021/12/29 12:47:13;;;;;;;2.28;1.30;;;21.40;50.30;;;;;;4975024;28;20193;-72
2021/12/29 12:49:53;;;;;;;2.85;1.20;;;21.40;50.20;;;;;;4974325;28;20284;-71
2021/12/29 12:52:23;;;;;;;1.10;1.00;;;21.40;50.20;;;;;;4987653;28;20185;-73
2021/12/29 12:54:57;;;;;;;2.63;1.20;;;21.40;50.20;;;;;;4986237;28;20190;-72
2021/12/29 12:57:36;;;;;;;1.55;1.00;;;21.40;50.20;;;;;;4981236;28;20209;-71
2021/12/29 13:00:19;;;;;;;1.70;1.10;;;21.40;50.20;;;;;;4988073;28;20213;-72
2021/12/29 13:03:05;;;;;;;3.00;1.10;;;21.40;50.20;;;;;;4973746;28;20193;-72
2021/12/29 13:05:40;;;;;;;3.83;1.60;;;21.40;50.20;;;;;;4973828;28;20208;-72